Time;durP1;ratioP1;P1;durP2;ratioP2;P2;SDS_P1;SDS_P2;PMS_P1;PMS_P2;Temp;Humidity;BMP_temperature;BMP_pressure;BME280_temperature;BME280_humidity;BME280_pressure;Samples;Min_cycle;Max_cycle;Signal;HPM_P1;HPM_P2
2021/11/02 00:00:48;;;;;;;2.47;1.77;;;8.00;99.90;;;;;;499717;237;28066;-84
2021/11/02 00:02:50;;;;;;;1.70;1.60;;;8.00;99.90;;;;;;499708;237;28756;-83
2021/11/02 00:04:51;;;;;;;1.63;1.50;;;7.90;99.90;;;;;;501423;234;28056;-84
2021/11/02 00:06:52;;;;;;;1.47;1.40;;;7.80;99.90;;;;;;499646;233;27885;-85
2021/11/02 00:08:53;;;;;;;1.30;1.20;;;7.80;99.90;;;;;;499701;237;27921;-83
2021/11/02 00:15:14;;;;;;;1.63;1.53;;;7.60;99.90;;;;;;484031;245;29013;-86
2021/11/02 00:17:21;;;;;;;2.90;1.90;;;7.50;99.90;;;;;;482660;245;28031;-85
2021/11/02 00:19:16;;;;;;;2.00;1.80;;;7.50;99.90;;;;;;482125;247;27730;-83
2021/11/02 00:21:18;;;;;;;1.97;1.87;;;7.50;99.90;;;;;;482408;247;27971;-85
2021/11/02 00:23:19;;;;;;;2.23;2.03;;;7.50;99.90;;;;;;482604;246;27810;-85
2021/11/02 00:25:20;;;;;;;2.03;1.90;;;7.40;99.90;;;;;;482718;242;28866;-84
2021/11/02 00:27:21;;;;;;;1.90;1.80;;;7.50;99.90;;;;;;481025;247;27941;-84
2021/11/02 00:29:22;;;;;;;1.80;1.70;;;7.50;99.90;;;;;;481058;247;27806;-84
2021/11/02 00:31:24;;;;;;;3.00;2.03;;;7.60;99.90;;;;;;482598;247;28867;-84
2021/11/02 00:33:25;;;;;;;2.07;1.97;;;7.60;99.90;;;;;;482776;246;28205;-82
2021/11/02 00:35:26;;;;;;;1.93;1.80;;;7.60;99.90;;;;;;482581;242;27938;-86
2021/11/02 00:37:27;;;;;;;1.80;1.70;;;7.60;99.90;;;;;;474157;251;27835;-84
2021/11/02 00:39:29;;;;;;;2.30;2.10;;;7.60;99.90;;;;;;474533;250;27768;-85
2021/11/02 00:41:30;;;;;;;2.07;1.87;;;7.60;99.90;;;;;;474476;246;28210;-83
2021/11/02 00:43:31;;;;;;;1.80;1.60;;;7.60;99.90;;;;;;474119;251;27776;-85
2021/11/02 00:45:36;;;;;;;2.60;2.00;;;7.60;99.90;;;;;;474184;251;28069;-84
2021/11/02 00:47:34;;;;;;;2.43;2.13;;;7.60;99.90;;;;;;473223;251;27764;-84
2021/11/02 00:49:35;;;;;;;2.07;1.90;;;7.50;99.90;;;;;;474366;251;28070;-83
2021/11/02 00:51:36;;;;;;;2.00;1.90;;;7.60;99.90;;;;;;473570;251;28962;-84
2021/11/02 00:53:37;;;;;;;1.90;1.80;;;7.70;99.90;;;;;;473755;251;27531;-86
2021/11/02 00:55:40;;;;;;;3.00;2.00;;;7.70;99.90;;;;;;474344;251;27521;-83
2021/11/02 00:57:40;;;;;;;2.40;2.20;;;7.80;99.90;;;;;;472485;249;27541;-83
2021/11/02 00:59:43;;;;;;;3.73;1.93;;;7.90;99.90;;;;;;474199;251;28017;-83
2021/11/02 01:01:42;;;;;;;2.50;2.00;;;7.90;99.90;;;;;;474455;246;27999;-84
2021/11/02 01:03:44;;;;;;;2.20;2.00;;;7.90;99.90;;;;;;474343;249;28068;-83
2021/11/02 01:05:45;;;;;;;1.90;1.80;;;8.00;99.90;;;;;;474465;246;28381;-83
2021/11/02 01:07:47;;;;;;;2.20;2.00;;;8.00;99.90;;;;;;474494;250;28072;-84
2021/11/02 01:09:48;;;;;;;3.40;1.90;;;8.00;99.90;;;;;;474566;250;28006;-84
2021/11/02 01:11:49;;;;;;;2.70;2.20;;;8.10;99.90;;;;;;472882;249;27878;-85
2021/11/02 01:13:50;;;;;;;2.70;2.13;;;8.10;99.90;;;;;;474448;248;28908;-85
2021/11/02 01:15:51;;;;;;;2.57;2.10;;;8.10;99.90;;;;;;474501;246;28130;-83
2021/11/02 01:17:55;;;;;;;5.13;2.37;;;8.20;99.90;;;;;;474511;244;27981;-84
2021/11/02 01:19:54;;;;;;;2.23;2.03;;;8.20;99.90;;;;;;474297;248;28528;-84
2021/11/02 01:21:55;;;;;;;2.30;2.20;;;8.20;99.90;;;;;;472881;251;28345;-84
2021/11/02 01:23:57;;;;;;;2.03;1.90;;;8.20;99.90;;;;;;474179;251;27977;-83
2021/11/02 01:25:57;;;;;;;3.23;2.00;;;8.20;99.90;;;;;;482348;235;28317;-82
2021/11/02 01:27:59;;;;;;;6.50;2.50;;;8.20;99.90;;;;;;484774;241;27982;-82
2021/11/02 01:30:00;;;;;;;5.40;2.50;;;8.20;99.90;;;;;;484700;245;28381;-83
2021/11/02 01:32:01;;;;;;;2.90;1.90;;;8.10;99.90;;;;;;484828;245;28029;-82
2021/11/02 01:34:02;;;;;;;2.40;2.20;;;8.20;99.90;;;;;;484845;245;28582;-82
2021/11/02 01:36:04;;;;;;;6.50;2.53;;;8.20;99.90;;;;;;484859;245;28005;-82
2021/11/02 01:38:05;;;;;;;2.30;2.20;;;8.20;99.90;;;;;;484816;242;27981;-81
2021/11/02 01:40:07;;;;;;;6.70;2.40;;;8.20;99.90;;;;;;484849;245;28036;-82
2021/11/02 01:42:07;;;;;;;2.50;2.30;;;8.20;99.90;;;;;;484836;245;28617;-81
2021/11/02 01:44:09;;;;;;;4.40;2.33;;;8.20;99.90;;;;;;484793;245;28356;-81
2021/11/02 01:46:10;;;;;;;3.47;2.23;;;8.20;99.90;;;;;;484851;244;28050;-82
2021/11/02 01:48:11;;;;;;;2.53;2.33;;;8.20;99.90;;;;;;484821;242;27778;-82
2021/11/02 01:50:13;;;;;;;3.20;2.37;;;8.20;99.90;;;;;;484810;245;27969;-81
2021/11/02 01:52:14;;;;;;;6.53;3.23;;;8.20;99.90;;;;;;484857;245;27739;-82
2021/11/02 01:54:16;;;;;;;4.70;4.30;;;8.20;99.90;;;;;;484817;245;27994;-83
2021/11/02 01:56:18;;;;;;;3.60;3.30;;;8.20;99.90;;;;;;484803;241;27923;-82
2021/11/02 01:58:17;;;;;;;3.70;3.40;;;8.10;99.90;;;;;;484849;243;27973;-82
2021/11/02 02:00:19;;;;;;;3.03;2.73;;;8.20;99.90;;;;;;484827;245;28078;-84
2021/11/02 02:02:20;;;;;;;3.20;2.90;;;8.20;99.90;;;;;;484840;245;28099;-83
2021/11/02 02:04:21;;;;;;;2.80;2.60;;;8.20;99.90;;;;;;484682;245;27968;-83
2021/11/02 02:06:23;;;;;;;2.80;2.53;;;8.20;99.90;;;;;;484824;241;27749;-83
2021/11/02 02:08:24;;;;;;;2.93;2.70;;;8.20;99.90;;;;;;484720;245;27911;-83
2021/11/02 02:10:25;;;;;;;2.80;2.50;;;8.20;99.90;;;;;;484723;245;27829;-83
2021/11/02 02:12:27;;;;;;;2.93;2.63;;;8.20;99.90;;;;;;484412;245;28165;-82
2021/11/02 02:14:28;;;;;;;5.20;2.47;;;8.20;99.90;;;;;;484861;243;27905;-84
2021/11/02 02:16:29;;;;;;;2.80;2.60;;;8.20;99.90;;;;;;484786;241;28714;-82
2021/11/02 02:18:31;;;;;;;4.13;2.43;;;8.20;99.90;;;;;;487292;236;27989;-84
2021/11/02 02:20:32;;;;;;;3.73;2.47;;;8.20;99.90;;;;;;488208;244;27567;-84
2021/11/02 02:22:33;;;;;;;2.30;2.10;;;8.20;99.90;;;;;;488125;244;27673;-81
2021/11/02 02:24:34;;;;;;;3.43;2.53;;;8.20;99.90;;;;;;488242;244;28362;-82
2021/11/02 02:26:35;;;;;;;2.57;2.37;;;8.20;99.90;;;;;;488221;240;28055;-81
2021/11/02 02:28:37;;;;;;;2.70;2.50;;;8.20;99.90;;;;;;488109;244;27961;-83
2021/11/02 02:30:38;;;;;;;2.93;2.73;;;8.20;99.90;;;;;;488109;244;28308;-83
2021/11/02 02:32:39;;;;;;;6.40;2.77;;;8.10;99.90;;;;;;488118;244;27846;-79
2021/11/02 02:34:40;;;;;;;2.50;2.30;;;8.20;99.90;;;;;;488053;244;27798;-83
2021/11/02 02:36:42;;;;;;;3.00;2.53;;;8.10;99.90;;;;;;488106;240;27978;-83
2021/11/02 02:38:44;;;;;;;3.27;2.40;;;8.10;99.90;;;;;;487707;244;27842;-82
2021/11/02 02:40:44;;;;;;;3.40;3.07;;;8.10;99.90;;;;;;488089;244;27970;-82
2021/11/02 02:42:45;;;;;;;3.30;3.00;;;8.10;99.90;;;;;;487940;240;28245;-83
2021/11/02 02:44:47;;;;;;;4.87;3.20;;;8.10;99.90;;;;;;488078;244;27670;-83
2021/11/02 02:46:48;;;;;;;3.80;3.30;;;8.10;99.90;;;;;;486308;244;27967;-83
2021/11/02 02:53:22;;;;;;;3.47;3.17;;;8.00;99.90;;;;;;486374;235;28154;-83
2021/11/02 02:55:23;;;;;;;2.93;2.73;;;8.00;99.90;;;;;;483186;245;27849;-83
2021/11/02 02:57:25;;;;;;;2.77;2.40;;;8.00;99.90;;;;;;484504;242;28075;-83
2021/11/02 02:59:26;;;;;;;2.73;2.53;;;8.00;99.90;;;;;;484780;245;27953;-82
2021/11/02 03:01:27;;;;;;;3.07;2.63;;;8.00;99.90;;;;;;484633;245;27966;-83
2021/11/02 03:03:29;;;;;;;2.90;2.70;;;8.10;99.90;;;;;;483111;245;28421;-85
2021/11/02 03:05:30;;;;;;;2.47;2.27;;;8.10;99.90;;;;;;484384;244;27856;-85
2021/11/02 03:07:31;;;;;;;2.67;2.40;;;8.10;99.90;;;;;;484436;242;27950;-83
2021/11/02 03:09:32;;;;;;;2.90;2.70;;;8.10;99.90;;;;;;484463;245;28082;-82
2021/11/02 03:11:33;;;;;;;6.53;2.50;;;8.10;99.90;;;;;;483062;245;28064;-83
2021/11/02 03:13:35;;;;;;;2.00;1.90;;;8.10;99.90;;;;;;484755;245;28467;-82
2021/11/02 03:18:00;;;;;;;2.77;2.57;;;8.10;99.90;;;;;;491867;236;28638;-82
2021/11/02 03:49:54;;;;;;;3.47;2.20;;;8.10;99.90;;;;;;475519;250;28454;-84
2021/11/02 03:52:00;;;;;;;3.57;2.03;;;8.10;99.90;;;;;;474509;249;28011;-84
2021/11/02 03:56:28;;;;;;;2.17;1.97;;;8.10;99.90;;;;;;475657;250;28084;-84
2021/11/02 04:28:08;;;;;;;3.60;3.23;;;8.00;99.90;;;;;;479043;245;28858;-84
2021/11/02 05:13:32;;;;;;;5.13;3.70;;;7.80;99.90;;;;;;491724;242;27630;-86
2021/11/02 06:04:11;;;;;;;3.07;2.87;;;7.90;99.90;;;;;;491778;235;27659;-82
2021/11/02 06:05:44;;;;;;;3.50;3.20;;;7.90;99.90;;;;;;476976;245;28893;-80
2021/11/02 06:09:47;;;;;;;3.10;2.80;;;7.90;99.90;;;;;;473466;250;27609;-82
2021/11/02 06:23:24;;;;;;;6.03;2.90;;;7.90;99.90;;;;;;473052;251;28105;-82
2021/11/02 06:27:51;;;;;;;2.50;2.40;;;8.00;99.90;;;;;;471293;251;27990;-83
2021/11/02 06:29:44;;;;;;;2.33;2.22;;;8.00;99.90;;;;;;473022;251;28703;-84
2021/11/02 06:31:57;;;;;;;5.50;2.00;;;8.00;99.90;;;;;;473436;250;27558;-83
2021/11/02 08:47:06;;;;;;;2.53;1.50;;;8.50;99.90;;;;;;468866;249;28018;-79
2021/11/02 08:49:03;;;;;;;2.33;1.70;;;8.60;99.90;;;;;;469186;252;27897;-80
2021/11/02 08:51:10;;;;;;;1.90;1.57;;;8.70;99.90;;;;;;469313;253;28389;-80
2021/11/02 08:53:11;;;;;;;1.70;1.60;;;8.70;99.90;;;;;;469218;251;27921;-77
2021/11/02 08:55:12;;;;;;;1.80;1.67;;;8.80;99.90;;;;;;469434;249;28083;-79
2021/11/02 08:57:16;;;;;;;2.47;2.00;;;8.80;99.90;;;;;;469495;251;28003;-80
2021/11/02 08:59:17;;;;;;;4.50;2.07;;;8.80;99.90;;;;;;468854;253;27872;-79
2021/11/02 09:01:20;;;;;;;1.70;1.60;;;8.80;99.90;;;;;;469535;253;28156;-81
2021/11/02 09:03:19;;;;;;;1.60;1.50;;;8.80;99.90;;;;;;469089;250;27601;-79
2021/11/02 09:05:21;;;;;;;2.30;1.80;;;8.80;99.90;;;;;;469119;253;28432;-80
2021/11/02 09:07:22;;;;;;;1.90;1.60;;;8.80;99.90;;;;;;468994;253;28588;-80
2021/11/02 09:09:23;;;;;;;1.40;1.33;;;8.80;99.90;;;;;;468838;253;28402;-80
2021/11/02 09:11:24;;;;;;;1.63;1.53;;;8.80;99.90;;;;;;469263;250;28325;-79
2021/11/02 09:13:26;;;;;;;1.90;1.80;;;8.70;99.90;;;;;;469271;252;28136;-79
2021/11/02 09:15:28;;;;;;;1.50;1.40;;;8.70;99.90;;;;;;469297;253;27989;-79
2021/11/02 09:17:29;;;;;;;1.50;1.40;;;8.60;99.90;;;;;;469210;253;27881;-77
2021/11/02 09:19:30;;;;;;;2.27;1.50;;;8.50;99.90;;;;;;469011;253;27810;-80
2021/11/02 09:21:34;;;;;;;1.53;1.43;;;8.50;99.90;;;;;;469226;253;28062;-79
2021/11/02 09:23:34;;;;;;;1.97;1.40;;;8.50;99.90;;;;;;468840;253;27782;-79
2021/11/02 09:25:35;;;;;;;1.77;1.40;;;8.50;99.90;;;;;;468897;249;27730;-79
2021/11/02 09:27:36;;;;;;;1.83;1.40;;;8.40;99.90;;;;;;469175;253;27797;-79
2021/11/02 09:29:41;;;;;;;1.60;1.27;;;8.40;99.90;;;;;;469244;253;28578;-80
2021/11/02 09:31:42;;;;;;;1.40;1.30;;;8.40;99.90;;;;;;468807;253;27462;-77
2021/11/02 09:33:44;;;;;;;1.70;1.60;;;8.30;99.90;;;;;;468930;250;27650;-80
2021/11/02 09:35:45;;;;;;;1.60;1.50;;;8.30;99.90;;;;;;469239;252;27907;-79
2021/11/02 09:37:48;;;;;;;2.20;1.80;;;8.30;99.90;;;;;;469250;249;27935;-79
2021/11/02 09:39:49;;;;;;;1.60;1.50;;;8.20;99.90;;;;;;468876;253;28087;-81
2021/11/02 09:41:54;;;;;;;1.50;1.43;;;8.20;99.90;;;;;;469228;250;27919;-79
2021/11/02 09:43:54;;;;;;;1.10;1.10;;;8.20;99.90;;;;;;468936;250;27919;-79
2021/11/02 09:45:59;;;;;;;1.50;1.40;;;8.30;99.90;;;;;;467614;253;27944;-79
2021/11/02 09:48:00;;;;;;;2.00;1.17;;;8.20;99.90;;;;;;468899;253;27589;-79
2021/11/02 09:50:01;;;;;;;1.27;1.20;;;8.20;99.90;;;;;;468937;252;28080;-79
2021/11/02 09:52:05;;;;;;;2.30;1.40;;;;;;;;;;469297;251;27972;-80
2021/11/02 09:54:09;;;;;;;0.90;0.90;;;8.60;99.90;;;;;;469236;249;26997;-79
2021/11/02 09:56:11;;;;;;;1.10;1.10;;;8.60;99.90;;;;;;467824;253;26967;-77
2021/11/02 09:58:12;;;;;;;1.20;1.20;;;8.60;99.90;;;;;;469270;250;27922;-80
2021/11/02 10:00:14;;;;;;;0.80;0.80;;;8.70;99.90;;;;;;469265;253;28459;-79
2021/11/02 10:02:16;;;;;;;1.00;0.90;;;8.80;99.90;;;;;;469239;250;29052;-79
2021/11/02 10:04:19;;;;;;;1.20;1.10;;;8.90;99.90;;;;;;467564;253;28137;-80
2021/11/02 10:06:21;;;;;;;1.00;1.00;;;8.90;99.90;;;;;;467612;253;28104;-79
2021/11/02 10:08:23;;;;;;;1.00;1.00;;;8.90;99.90;;;;;;467573;253;27797;-80
2021/11/02 10:10:25;;;;;;;1.17;1.07;;;8.90;99.90;;;;;;467624;249;28151;-79
2021/11/02 10:12:26;;;;;;;0.97;0.97;;;9.00;99.90;;;;;;469343;250;28336;-80
2021/11/02 10:14:28;;;;;;;0.80;0.80;;;9.00;99.90;;;;;;469279;250;28448;-81
2021/11/02 10:16:30;;;;;;;1.07;1.07;;;8.90;99.90;;;;;;467621;253;28529;-80
2021/11/02 10:18:32;;;;;;;1.00;1.00;;;8.80;99.90;;;;;;467978;250;28019;-80
2021/11/02 10:20:34;;;;;;;1.20;1.10;;;8.80;99.90;;;;;;468982;250;27980;-79
2021/11/02 10:22:34;;;;;;;1.10;1.10;;;8.80;99.90;;;;;;469251;249;27893;-80
2021/11/02 10:24:45;;;;;;;1.23;1.13;;;8.70;99.90;;;;;;468978;250;27870;-79
2021/11/02 10:26:47;;;;;;;1.10;1.10;;;8.60;99.90;;;;;;468604;253;27929;-80
2021/11/02 10:28:48;;;;;;;1.80;1.10;;;8.60;99.90;;;;;;469295;251;28085;-80
2021/11/02 10:30:53;;;;;;;1.10;1.00;;;8.70;99.90;;;;;;469207;250;28372;-80
2021/11/02 10:32:54;;;;;;;0.97;0.97;;;8.60;99.90;;;;;;468796;253;28017;-77
2021/11/02 10:37:00;;;;;;;2.10;1.10;;;8.60;99.90;;;;;;469290;252;28095;-79
2021/11/02 10:39:02;;;;;;;0.87;0.87;;;8.60;99.90;;;;;;469332;253;27974;-79
2021/11/02 10:41:03;;;;;;;0.80;0.80;;;8.60;99.90;;;;;;469266;253;28029;-80
2021/11/02 10:43:06;;;;;;;0.87;0.87;;;8.70;99.90;;;;;;468611;250;27934;-80
2021/11/02 10:45:07;;;;;;;0.93;0.93;;;8.60;99.90;;;;;;469101;253;27785;-79
2021/11/02 10:47:15;;;;;;;1.17;1.00;;;8.50;99.90;;;;;;469218;251;28098;-79
2021/11/02 10:49:16;;;;;;;0.87;0.87;;;8.50;99.90;;;;;;468655;253;28001;-77
2021/11/02 10:51:18;;;;;;;0.90;0.90;;;8.40;99.90;;;;;;469238;253;27967;-80
2021/11/02 10:53:20;;;;;;;1.00;1.00;;;8.50;99.90;;;;;;468901;253;27939;-79
2021/11/02 10:55:21;;;;;;;1.07;1.00;;;8.40;99.90;;;;;;468941;249;27974;-81
2021/11/02 10:57:22;;;;;;;1.00;1.00;;;8.40;99.90;;;;;;469127;253;27680;-80
2021/11/02 10:59:23;;;;;;;1.00;1.00;;;8.40;99.90;;;;;;469179;250;28551;-79
2021/11/02 11:01:25;;;;;;;0.90;0.90;;;8.30;99.90;;;;;;469367;253;28559;-80
2021/11/02 11:03:33;;;;;;;1.00;1.00;;;8.30;99.90;;;;;;469347;250;28366;-80
2021/11/02 11:05:34;;;;;;;1.10;1.10;;;8.30;99.90;;;;;;469136;253;28120;-79
2021/11/02 11:07:35;;;;;;;1.30;1.20;;;8.30;99.90;;;;;;469259;250;28470;-80
2021/11/02 11:09:37;;;;;;;1.03;1.03;;;8.10;99.90;;;;;;469003;253;28535;-79
2021/11/02 11:11:41;;;;;;;1.80;1.70;;;8.10;99.90;;;;;;469344;253;28482;-80
2021/11/02 11:13:42;;;;;;;2.40;2.30;;;8.10;99.90;;;;;;468786;253;28598;-77
2021/11/02 11:15:43;;;;;;;1.80;1.80;;;8.10;99.90;;;;;;469299;251;28160;-79
2021/11/02 11:17:45;;;;;;;2.10;2.00;;;8.10;99.90;;;;;;469289;250;27937;-80
2021/11/02 11:19:46;;;;;;;1.70;1.70;;;8.20;99.90;;;;;;469316;253;28091;-79
2021/11/02 11:21:53;;;;;;;1.50;1.50;;;8.20;99.90;;;;;;469327;251;28057;-80
2021/11/02 11:23:55;;;;;;;1.87;1.80;;;8.30;99.90;;;;;;468799;253;28501;-79
2021/11/02 11:25:55;;;;;;;1.40;1.40;;;8.30;99.90;;;;;;469258;253;27959;-80
2021/11/02 11:27:57;;;;;;;1.40;1.40;;;8.40;99.90;;;;;;468938;250;27932;-80
2021/11/02 11:29:58;;;;;;;1.90;1.80;;;8.40;99.90;;;;;;469265;253;27583;-79
2021/11/02 11:31:59;;;;;;;1.50;1.50;;;8.40;99.90;;;;;;469242;253;27751;-79
2021/11/02 11:34:01;;;;;;;1.30;1.30;;;8.40;99.90;;;;;;469129;253;27431;-79
2021/11/02 11:36:02;;;;;;;1.43;1.33;;;8.40;99.90;;;;;;469374;252;28186;-79
2021/11/02 11:38:03;;;;;;;1.70;1.60;;;8.30;99.90;;;;;;468953;253;27974;-80
2021/11/02 11:40:08;;;;;;;1.13;1.13;;;8.30;99.90;;;;;;468874;249;27570;-79
2021/11/02 11:42:08;;;;;;;1.13;1.13;;;8.40;99.90;;;;;;469173;253;28505;-77
2021/11/02 11:44:10;;;;;;;1.00;1.00;;;8.30;99.90;;;;;;469279;253;28530;-78
2021/11/02 11:46:11;;;;;;;1.10;1.10;;;8.30;99.90;;;;;;469312;251;27704;-80
2021/11/02 11:48:24;;;;;;;1.40;1.30;;;8.30;99.90;;;;;;469205;251;28487;-80
2021/11/02 11:50:24;;;;;;;1.90;1.30;;;8.30;99.90;;;;;;468932;253;28030;-79
2021/11/02 11:52:24;;;;;;;1.30;1.30;;;8.40;99.90;;;;;;468881;253;28235;-78
2021/11/02 11:54:25;;;;;;;1.33;1.30;;;8.40;99.90;;;;;;468898;253;28795;-80
2021/11/02 11:56:26;;;;;;;1.10;1.10;;;8.40;99.90;;;;;;469055;253;28138;-80
2021/11/02 11:58:30;;;;;;;1.20;1.20;;;8.50;99.90;;;;;;469393;253;27984;-79
2021/11/02 12:00:31;;;;;;;2.03;1.47;;;8.50;99.90;;;;;;468889;253;27781;-79
2021/11/02 12:02:32;;;;;;;1.10;1.10;;;8.60;99.90;;;;;;469182;253;27641;-77
2021/11/02 12:04:33;;;;;;;1.20;1.10;;;8.50;99.90;;;;;;469838;253;28489;-80
2021/11/02 12:06:35;;;;;;;1.30;1.20;;;8.50;99.90;;;;;;469837;253;28245;-79
2021/11/02 12:08:36;;;;;;;1.00;1.00;;;8.60;99.90;;;;;;469531;253;28008;-80
2021/11/02 12:12:43;;;;;;;1.20;1.20;;;8.60;99.90;;;;;;468941;253;28030;-79
2021/11/02 12:14:43;;;;;;;1.10;1.10;;;8.70;99.90;;;;;;469217;253;27682;-78
2021/11/02 12:16:56;;;;;;;1.20;1.20;;;8.80;99.90;;;;;;469166;253;27997;-80
2021/11/02 12:18:57;;;;;;;0.97;0.97;;;8.80;99.90;;;;;;469182;253;28307;-78
2021/11/02 12:21:01;;;;;;;1.00;1.00;;;8.90;99.90;;;;;;469571;253;28133;-79
2021/11/02 12:23:02;;;;;;;1.10;1.10;;;9.10;99.90;;;;;;469000;253;28091;-81
2021/11/02 12:25:04;;;;;;;0.93;0.93;;;9.10;99.90;;;;;;469406;253;27939;-80
2021/11/02 12:27:05;;;;;;;1.30;1.20;;;9.20;99.90;;;;;;469576;250;27906;-80
2021/11/02 12:29:15;;;;;;;1.10;1.10;;;9.20;99.90;;;;;;467365;250;28586;-80
2021/11/02 12:31:16;;;;;;;1.17;0.90;;;9.30;99.90;;;;;;461518;258;28047;-79
2021/11/02 12:33:17;;;;;;;1.27;1.00;;;9.30;99.90;;;;;;478200;248;27410;-80
2021/11/02 12:37:29;;;;;;;1.00;1.00;;;9.30;99.90;;;;;;472157;252;27975;-80
2021/11/02 12:39:30;;;;;;;1.77;1.50;;;9.20;99.90;;;;;;472441;251;27959;-80
2021/11/02 12:41:31;;;;;;;1.30;1.20;;;9.00;99.90;;;;;;471927;252;28046;-80
2021/11/02 12:43:35;;;;;;;1.30;1.20;;;8.90;99.90;;;;;;471851;252;27962;-80
2021/11/02 12:45:37;;;;;;;1.30;1.30;;;8.90;99.90;;;;;;471100;252;28047;-80
2021/11/02 12:47:47;;;;;;;1.90;1.40;;;9.10;99.90;;;;;;472326;251;28035;-80
2021/11/02 12:49:48;;;;;;;1.30;1.30;;;9.10;99.90;;;;;;471864;251;27909;-77
2021/11/02 12:51:50;;;;;;;1.33;1.33;;;9.20;99.90;;;;;;471874;252;28005;-77
2021/11/02 12:53:52;;;;;;;1.20;1.20;;;9.20;99.90;;;;;;472098;252;27722;-78
2021/11/02 12:55:53;;;;;;;1.20;1.20;;;9.20;99.90;;;;;;471827;252;28071;-81
2021/11/02 12:57:54;;;;;;;1.23;1.23;;;9.30;99.90;;;;;;472024;251;27672;-81
2021/11/02 12:59:56;;;;;;;1.17;1.07;;;9.50;99.90;;;;;;471998;252;27874;-80
2021/11/02 13:01:59;;;;;;;1.20;1.20;;;9.50;99.90;;;;;;470491;252;28547;-80
2021/11/02 13:03:59;;;;;;;1.30;1.20;;;9.40;99.90;;;;;;471717;252;28089;-80
2021/11/02 13:06:00;;;;;;;1.37;1.27;;;9.30;99.90;;;;;;470457;252;27746;-79
2021/11/02 13:08:02;;;;;;;1.10;1.10;;;9.30;99.90;;;;;;471972;251;28014;-79
2021/11/02 13:10:03;;;;;;;1.20;1.20;;;9.20;99.90;;;;;;470503;252;27702;-80
2021/11/02 13:12:07;;;;;;;1.10;1.10;;;9.20;99.90;;;;;;470416;252;28110;-80
2021/11/02 13:14:11;;;;;;;1.40;1.30;;;9.20;99.90;;;;;;471482;252;27643;-80
2021/11/02 13:16:09;;;;;;;1.10;1.10;;;9.10;99.90;;;;;;470064;252;27853;-80
2021/11/02 13:18:11;;;;;;;1.50;1.40;;;9.10;99.90;;;;;;472008;250;27681;-80
2021/11/02 13:20:13;;;;;;;1.10;1.10;;;9.20;99.90;;;;;;470496;252;27933;-79
2021/11/02 13:22:15;;;;;;;1.17;1.17;;;9.30;99.90;;;;;;471305;252;27624;-80
2021/11/02 13:24:17;;;;;;;1.23;1.23;;;9.40;99.90;;;;;;471268;252;27926;-80
2021/11/02 13:26:20;;;;;;;3.60;1.90;;;;;;;;;;470290;252;28030;-79
2021/11/02 13:28:21;;;;;;;1.20;1.20;;;9.40;99.90;;;;;;471803;252;26717;-79
2021/11/02 13:30:23;;;;;;;1.20;1.20;;;9.30;99.90;;;;;;470412;252;27939;-80
2021/11/02 13:32:24;;;;;;;1.20;1.20;;;9.30;99.90;;;;;;472037;251;27526;-79
2021/11/02 13:34:26;;;;;;;1.17;1.10;;;9.30;99.90;;;;;;471256;252;27996;-80
2021/11/02 13:38:31;;;;;;;1.13;1.13;;;9.20;99.90;;;;;;470063;252;28278;-80
2021/11/02 13:40:33;;;;;;;1.10;1.10;;;9.10;99.90;;;;;;472025;251;28680;-80
2021/11/02 13:42:34;;;;;;;1.07;1.07;;;9.00;99.90;;;;;;471979;251;27742;-80
2021/11/02 13:44:39;;;;;;;1.30;1.30;;;9.00;99.90;;;;;;470411;252;28779;-80
2021/11/02 13:46:37;;;;;;;1.33;1.23;;;9.00;99.90;;;;;;470140;251;28056;-80
2021/11/02 13:48:38;;;;;;;2.80;1.40;;;9.00;99.90;;;;;;471949;252;27441;-80
2021/11/02 13:50:39;;;;;;;1.23;1.23;;;8.90;99.90;;;;;;470533;252;27902;-80
2021/11/02 13:52:41;;;;;;;1.10;1.10;;;8.80;99.90;;;;;;470402;252;27955;-80
2021/11/02 13:54:44;;;;;;;1.57;1.30;;;8.80;99.90;;;;;;470391;252;28127;-80
2021/11/02 13:56:45;;;;;;;2.43;2.30;;;8.90;99.90;;;;;;470437;252;28084;-80
2021/11/02 13:58:47;;;;;;;3.30;3.10;;;8.90;99.90;;;;;;470509;251;27807;-80
2021/11/02 14:00:48;;;;;;;3.00;2.80;;;9.00;99.90;;;;;;470490;251;27446;-80
2021/11/02 14:02:49;;;;;;;2.00;1.90;;;9.00;99.90;;;;;;471940;252;27870;-79
2021/11/02 14:04:50;;;;;;;2.13;1.90;;;8.90;99.90;;;;;;470438;252;28424;-81
2021/11/02 14:06:52;;;;;;;1.80;1.70;;;8.80;99.90;;;;;;471194;252;28488;-80
2021/11/02 14:08:53;;;;;;;1.70;1.60;;;8.80;99.90;;;;;;470815;252;28423;-79
2021/11/02 14:10:54;;;;;;;1.57;1.57;;;8.90;99.90;;;;;;470399;252;28410;-79
2021/11/02 14:12:55;;;;;;;1.50;1.40;;;8.80;99.90;;;;;;472048;252;28495;-79
2021/11/02 14:14:58;;;;;;;1.20;1.20;;;8.80;99.90;;;;;;472006;251;28661;-80
2021/11/02 14:16:59;;;;;;;1.17;1.17;;;8.60;99.90;;;;;;470187;252;27969;-80
2021/11/02 14:19:00;;;;;;;1.47;1.40;;;8.60;99.90;;;;;;471192;252;27952;-80
2021/11/02 14:21:02;;;;;;;1.20;1.20;;;8.60;99.90;;;;;;471896;252;27873;-80
2021/11/02 14:23:03;;;;;;;1.30;1.30;;;8.60;99.90;;;;;;471954;249;28127;-79
2021/11/02 14:25:06;;;;;;;1.23;1.17;;;8.50;99.90;;;;;;471958;251;28455;-82
2021/11/02 14:27:08;;;;;;;1.10;1.10;;;8.50;99.90;;;;;;470156;252;28449;-79
2021/11/02 14:29:10;;;;;;;1.20;1.20;;;8.40;99.90;;;;;;471127;252;28420;-79
2021/11/02 14:31:10;;;;;;;1.20;1.20;;;8.30;99.90;;;;;;471626;252;27864;-80
2021/11/02 14:33:11;;;;;;;1.00;1.00;;;8.30;99.90;;;;;;471887;252;28053;-79
2021/11/02 14:35:12;;;;;;;1.40;1.30;;;8.30;99.90;;;;;;470289;252;27976;-81
2021/11/02 14:37:15;;;;;;;0.90;0.90;;;8.30;99.90;;;;;;471865;252;27443;-79
2021/11/02 14:39:16;;;;;;;1.13;1.13;;;8.30;99.90;;;;;;471781;252;28024;-80
2021/11/02 14:41:16;;;;;;;1.10;1.10;;;8.40;99.90;;;;;;470982;252;27870;-80
2021/11/02 14:43:22;;;;;;;1.00;1.00;;;8.40;99.90;;;;;;471871;251;27814;-80
2021/11/02 14:45:22;;;;;;;1.00;1.00;;;8.40;99.90;;;;;;471878;251;27676;-80
2021/11/02 14:47:23;;;;;;;1.47;1.20;;;8.40;99.90;;;;;;471795;252;27724;-79
2021/11/02 14:49:24;;;;;;;0.80;0.80;;;8.40;99.90;;;;;;471817;252;28037;-80
2021/11/02 14:51:26;;;;;;;1.30;1.20;;;8.30;99.90;;;;;;470286;252;27954;-80
2021/11/02 14:53:35;;;;;;;1.20;1.13;;;8.30;99.90;;;;;;471966;251;27709;-79
2021/11/02 14:55:34;;;;;;;1.10;1.10;;;8.30;99.90;;;;;;470231;251;27852;-79
2021/11/02 14:57:36;;;;;;;1.00;1.00;;;8.10;99.90;;;;;;472432;251;27687;-80
2021/11/02 14:59:37;;;;;;;1.10;1.10;;;8.00;99.90;;;;;;473260;251;28036;-80
2021/11/02 15:01:42;;;;;;;1.07;1.07;;;8.10;99.90;;;;;;473082;246;28535;-80
2021/11/02 15:03:43;;;;;;;1.10;1.00;;;8.10;99.90;;;;;;472906;251;27992;-80
2021/11/02 15:05:45;;;;;;;1.20;1.20;;;8.20;99.90;;;;;;473232;251;28083;-79
2021/11/02 15:07:46;;;;;;;1.50;1.40;;;8.20;99.90;;;;;;473249;251;28028;-80
2021/11/02 15:09:47;;;;;;;1.20;1.10;;;8.30;99.90;;;;;;472946;251;28329;-80
2021/11/02 15:11:48;;;;;;;1.73;1.40;;;8.40;99.90;;;;;;473227;251;28031;-80
2021/11/02 15:13:50;;;;;;;1.40;1.30;;;8.50;99.90;;;;;;473255;251;28403;-79
2021/11/02 15:15:51;;;;;;;1.10;1.10;;;8.50;99.90;;;;;;472449;250;28334;-80
2021/11/02 15:17:53;;;;;;;1.40;1.30;;;8.40;99.90;;;;;;471646;251;28494;-80
2021/11/02 15:19:53;;;;;;;1.30;1.20;;;8.30;99.90;;;;;;470342;250;27752;-79
2021/11/02 15:21:55;;;;;;;1.20;1.20;;;8.30;99.90;;;;;;471724;251;27957;-80
2021/11/02 15:23:56;;;;;;;1.20;1.20;;;8.30;99.90;;;;;;471623;251;28068;-80
2021/11/02 15:25:57;;;;;;;1.10;1.10;;;8.20;99.90;;;;;;472972;251;28080;-80
2021/11/02 15:28:02;;;;;;;1.20;1.20;;;8.20;99.90;;;;;;473183;249;27956;-80
2021/11/02 15:30:03;;;;;;;1.10;1.10;;;8.20;99.90;;;;;;471680;251;28199;-79
2021/11/02 15:32:04;;;;;;;1.33;1.33;;;8.10;99.90;;;;;;471634;251;27908;-79
2021/11/02 15:34:05;;;;;;;1.00;1.00;;;8.10;99.90;;;;;;473103;251;27980;-80
2021/11/02 15:36:07;;;;;;;1.20;1.20;;;8.10;99.90;;;;;;473161;251;28327;-80
2021/11/02 15:38:08;;;;;;;1.00;1.00;;;8.10;99.90;;;;;;473252;251;28389;-80
2021/11/02 15:42:13;;;;;;;1.00;1.00;;;8.00;99.90;;;;;;471633;251;28063;-79
2021/11/02 15:44:17;;;;;;;1.37;1.20;;;7.90;99.90;;;;;;471639;250;28041;-79
2021/11/02 15:46:16;;;;;;;1.20;1.10;;;7.80;99.90;;;;;;472835;251;27928;-80
2021/11/02 15:48:17;;;;;;;1.30;1.20;;;7.90;99.90;;;;;;473241;251;28466;-80
2021/11/02 15:50:18;;;;;;;1.10;1.10;;;7.90;99.90;;;;;;473244;250;28611;-80
2021/11/02 15:52:20;;;;;;;1.00;1.00;;;7.90;99.90;;;;;;472405;251;28456;-80
2021/11/02 15:54:23;;;;;;;1.00;1.00;;;7.90;99.90;;;;;;472761;251;28107;-80
2021/11/02 15:56:23;;;;;;;1.20;1.20;;;7.90;99.90;;;;;;473162;251;27807;-79
2021/11/02 15:58:24;;;;;;;1.30;1.30;;;7.90;99.90;;;;;;473260;251;29031;-80
2021/11/02 16:00:25;;;;;;;1.60;1.60;;;7.90;99.90;;;;;;471709;251;28544;-80
2021/11/02 16:02:28;;;;;;;1.17;1.17;;;7.80;99.90;;;;;;473168;251;28504;-80
2021/11/02 16:04:29;;;;;;;1.30;1.30;;;7.70;99.90;;;;;;473185;251;28043;-80
2021/11/02 16:06:30;;;;;;;1.23;1.23;;;7.60;99.90;;;;;;473024;251;28019;-80